Time;durP1;ratioP1;P1;durP2;ratioP2;P2;SDS_P1;SDS_P2;PMS_P1;PMS_P2;Temp;Humidity;BMP_temperature;BMP_pressure;BME280_temperature;BME280_humidity;BME280_pressure;Samples;Min_cycle;Max_cycle;Signal;HPM_P1;HPM_P2
2022/02/19 00:01:29;;;;;;;6.60;2.00;;;;;;;;;;5073639;28;20245;-67
2022/02/19 00:03:56;;;;;;;12.07;2.00;;;;;;;;;;5071898;28;20211;-68
2022/02/19 00:06:21;;;;;;;10.03;2.60;;;;;;;;;;5060463;28;20563;-67
2022/02/19 00:08:46;;;;;;;6.33;2.13;;;;;;;;;;5051354;28;20173;-67
2022/02/19 00:11:12;;;;;;;11.90;2.77;;;;;;;;;;5072287;28;20213;-67
2022/02/19 00:13:37;;;;;;;8.70;2.13;;;;;;;;;;5072272;28;20161;-67
2022/02/19 00:16:05;;;;;;;19.83;3.40;;;;;;;;;;5072766;28;20195;-68
2022/02/19 00:18:31;;;;;;;5.47;1.90;;;;;;;;;;5052568;28;20169;-68
2022/02/19 00:20:56;;;;;;;10.17;1.90;;;;;;;;;;5052416;28;20193;-67
2022/02/19 00:23:21;;;;;;;9.40;1.60;;;;;;;;;;5071161;28;20276;-68
2022/02/19 00:25:46;;;;;;;10.97;2.17;;;;;;;;;;5072174;28;20223;-68
2022/02/19 00:28:11;;;;;;;15.33;2.70;;;;;;;;;;5072861;28;20263;-68
2022/02/19 00:30:36;;;;;;;7.87;1.47;;;;;;;;;;5069810;28;20209;-67
2022/02/19 00:33:02;;;;;;;11.00;1.80;;;;;;;;;;5070527;28;20225;-67
2022/02/19 00:35:27;;;;;;;14.53;2.87;;;;;;;;;;5053192;28;20666;-67
2022/02/19 00:37:52;;;;;;;8.10;2.17;;;;;;;;;;5071741;28;20535;-68
2022/02/19 00:40:17;;;;;;;6.67;1.87;;;;;;;;;;5070841;28;20189;-67
2022/02/19 00:42:43;;;;;;;9.57;3.83;;;;;;;;;;5071311;28;20255;-67
2022/02/19 00:45:08;;;;;;;8.97;1.70;;;;;;;;;;5071070;28;20216;-67
2022/02/19 00:47:33;;;;;;;7.80;1.93;;;;;;;;;;5071107;28;20272;-66
2022/02/19 00:49:58;;;;;;;4.87;1.67;;;;;;;;;;5069203;28;20196;-67
2022/02/19 00:52:23;;;;;;;6.40;1.97;;;;;;;;;;5071077;28;20228;-67
2022/02/19 00:54:49;;;;;;;8.33;1.77;;;;;;;;;;5064513;28;20219;-67
2022/02/19 00:57:15;;;;;;;6.50;1.37;;;;;;;;;;5041726;28;20184;-67
2022/02/19 00:59:40;;;;;;;9.57;1.70;;;;;;;;;;5045671;28;20275;-67
2022/02/19 01:02:05;;;;;;;8.30;2.30;;;;;;;;;;5052850;28;20330;-68
2022/02/19 01:04:30;;;;;;;8.50;2.60;;;;;;;;;;5047498;28;20707;-67
2022/02/19 01:06:56;;;;;;;10.23;1.73;;;;;;;;;;5071695;28;20237;-68
2022/02/19 01:09:21;;;;;;;10.93;2.40;;;;;;;;;;5079388;28;20197;-68
2022/02/19 01:11:46;;;;;;;5.13;1.30;;;;;;;;;;5065763;28;20338;-67
2022/02/19 01:14:12;;;;;;;7.60;1.77;;;;;;;;;;5052889;28;20801;-67
2022/02/19 01:16:37;;;;;;;7.30;1.83;;;;;;;;;;5053420;28;20283;-68
2022/02/19 01:19:03;;;;;;;7.93;2.30;;;;;;;;;;5070176;28;20635;-69
2022/02/19 01:21:28;;;;;;;11.17;2.00;;;;;;;;;;5068605;28;20185;-68
2022/02/19 01:23:54;;;;;;;5.13;1.17;;;;;;;;;;5070185;28;20181;-67
2022/02/19 01:26:19;;;;;;;4.77;1.23;;;;;;;;;;5069392;28;20243;-68
2022/02/19 01:28:44;;;;;;;11.63;2.00;;;;;;;;;;5065606;28;20187;-67
2022/02/19 01:31:09;;;;;;;3.67;1.40;;;;;;;;;;5069062;28;20215;-67
2022/02/19 01:33:34;;;;;;;6.97;1.80;;;;;;;;;;5070107;28;20177;-67
2022/02/19 01:36:00;;;;;;;10.60;1.73;;;;;;;;;;5071878;28;20201;-68
2022/02/19 01:38:27;;;;;;;11.10;1.53;;;;;;;;;;5067048;28;20234;-67
2022/02/19 01:40:52;;;;;;;10.23;1.70;;;;;;;;;;5066344;28;20185;-68
2022/02/19 01:43:18;;;;;;;9.80;2.20;;;;;;;;;;5067762;28;20209;-67
2022/02/19 01:45:45;;;;;;;10.10;2.17;;;;;;;;;;5068728;28;20218;-67
2022/02/19 01:48:10;;;;;;;9.27;1.80;;;;;;;;;;5067500;28;20236;-67
2022/02/19 01:50:36;;;;;;;10.63;1.93;;;;;;;;;;5050868;28;20232;-68
2022/02/19 01:53:01;;;;;;;12.27;2.27;;;;;;;;;;5068046;28;20173;-67
2022/02/19 01:55:26;;;;;;;4.43;1.40;;;;;;;;;;5067178;28;20561;-67
2022/02/19 01:57:52;;;;;;;5.40;1.57;;;;;;;;;;5068097;28;20185;-68
2022/02/19 02:00:17;;;;;;;6.60;1.17;;;;;;;;;;5046872;28;20189;-68
2022/02/19 02:02:42;;;;;;;14.73;1.87;;;;;;;;;;5068722;28;20188;-68
2022/02/19 02:05:08;;;;;;;5.40;1.40;;;;;;;;;;5068686;28;20196;-68
2022/02/19 02:07:33;;;;;;;5.80;1.70;;;;;;;;;;5067186;28;20173;-68
2022/02/19 02:09:58;;;;;;;9.57;2.30;;;;;;;;;;5068613;28;20215;-68
2022/02/19 02:12:23;;;;;;;9.97;1.87;;;;;;;;;;5062496;28;20204;-68
2022/02/19 02:14:49;;;;;;;9.57;2.03;;;;;;;;;;5070640;28;20720;-67
2022/02/19 02:17:14;;;;;;;6.33;1.60;;;;;;;;;;5070454;28;20260;-67
2022/02/19 02:19:39;;;;;;;11.27;1.70;;;;;;;;;;5061970;28;20214;-68
2022/02/19 02:22:05;;;;;;;10.53;1.70;;;;;;;;;;5069917;28;20642;-68
2022/02/19 02:27:12;;;;;;;9.67;1.63;;;;;;;;;;5048069;28;20232;-69
2022/02/19 02:29:45;;;;;;;4.37;1.60;;;;;;;;;;5027762;28;20288;-69
2022/02/19 02:32:10;;;;;;;3.77;2.00;;;;;;;;;;5051914;28;20179;-68
2022/02/19 02:34:46;;;;;;;6.33;1.83;;;;;;;;;;5051387;28;20264;-69
2022/02/19 02:37:11;;;;;;;8.67;2.40;;;;;;;;;;5050110;28;20244;-69
2022/02/19 02:39:36;;;;;;;9.93;2.30;;;;;;;;;;5050171;28;20647;-69
2022/02/19 02:42:03;;;;;;;6.93;2.00;;;;;;;;;;5048935;28;20221;-70
2022/02/19 02:44:28;;;;;;;8.93;1.90;;;;;;;;;;5050168;28;20182;-68
2022/02/19 02:46:53;;;;;;;11.00;1.77;;;;;;;;;;5045448;28;20200;-68
2022/02/19 02:49:19;;;;;;;5.10;1.70;;;;;;;;;;5048223;28;20236;-68
2022/02/19 02:51:44;;;;;;;11.67;2.10;;;;;;;;;;5048615;28;20643;-68
2022/02/19 02:54:09;;;;;;;6.37;2.67;;;;;;;;;;5049812;28;20181;-68
2022/02/19 02:56:34;;;;;;;4.87;1.40;;;;;;;;;;5049123;28;20227;-68
2022/02/19 02:58:59;;;;;;;9.00;2.00;;;;;;;;;;5054277;28;20185;-68
2022/02/19 03:01:25;;;;;;;8.10;1.77;;;;;;;;;;5048556;28;20197;-68
2022/02/19 03:03:50;;;;;;;14.57;2.97;;;;;;;;;;5023248;28;20189;-68
2022/02/19 03:06:15;;;;;;;9.50;1.97;;;;;;;;;;5042379;28;20236;-68
2022/02/19 03:08:40;;;;;;;6.97;2.03;;;;;;;;;;5046577;28;20177;-68
2022/02/19 03:11:05;;;;;;;9.90;2.63;;;;;;;;;;5049243;28;20655;-67
2022/02/19 03:13:31;;;;;;;11.87;2.60;;;;;;;;;;5047381;28;20193;-70
2022/02/19 03:15:56;;;;;;;11.70;2.77;;;;;;;;;;5049860;28;20552;-67
2022/02/19 03:18:21;;;;;;;9.23;2.80;;;;;;;;;;5048888;28;20240;-68
2022/02/19 03:20:47;;;;;;;10.70;2.67;;;;;;;;;;5048829;28;20730;-68
2022/02/19 03:23:12;;;;;;;14.40;2.63;;;;;;;;;;5047521;28;20226;-68
2022/02/19 03:25:37;;;;;;;11.10;2.50;;;;;;;;;;5048381;28;20593;-69
2022/02/19 03:28:03;;;;;;;15.37;3.50;;;;;;;;;;5049778;28;20789;-68
2022/02/19 03:30:28;;;;;;;10.80;2.57;;;;;;;;;;5048013;28;20245;-68
2022/02/19 03:32:54;;;;;;;11.30;2.60;;;;;;;;;;5049166;28;20185;-68
2022/02/19 03:35:19;;;;;;;23.00;4.10;;;;;;;;;;5049336;28;20665;-67
2022/02/19 03:37:44;;;;;;;12.47;2.90;;;;;;;;;;5049448;28;20189;-69
2022/02/19 03:40:10;;;;;;;10.70;2.30;;;;;;;;;;5049083;28;20193;-67
2022/02/19 03:42:36;;;;;;;9.07;2.33;;;;;;;;;;5050759;28;20416;-70
2022/02/19 03:45:01;;;;;;;8.73;2.63;;;;;;;;;;5048725;28;20580;-70
2022/02/19 03:47:26;;;;;;;12.73;2.33;;;;;;;;;;5049254;28;20271;-69
2022/02/19 03:49:52;;;;;;;11.97;4.17;;;;;;;;;;5048038;28;20635;-67
2022/02/19 03:52:17;;;;;;;8.67;2.33;;;;;;;;;;5050311;28;20173;-69
2022/02/19 03:54:42;;;;;;;10.40;2.70;;;;;;;;;;5047154;28;20257;-69
2022/02/19 03:57:07;;;;;;;6.23;1.80;;;;;;;;;;5048721;28;20181;-69
2022/02/19 03:59:32;;;;;;;11.90;2.80;;;;;;;;;;5048108;28;20190;-69
2022/02/19 04:01:57;;;;;;;8.90;2.30;;;;;;;;;;5049407;28;20339;-69
2022/02/19 04:04:23;;;;;;;8.23;2.40;;;;;;;;;;5042126;28;20204;-69
2022/02/19 04:06:48;;;;;;;16.07;2.47;;;;;;;;;;5038590;28;20190;-67
2022/02/19 04:09:13;;;;;;;6.90;1.57;;;;;;;;;;5047416;28;20574;-68
2022/02/19 04:11:39;;;;;;;5.77;1.50;;;;;;;;;;5028594;28;20182;-69
2022/02/19 04:14:04;;;;;;;9.33;1.83;;;;;;;;;;5046238;28;20285;-69
2022/02/19 04:16:29;;;;;;;10.00;1.90;;;;;;;;;;5045559;28;20297;-69
2022/02/19 04:18:54;;;;;;;10.07;2.27;;;;;;;;;;5049079;28;20185;-69
2022/02/19 04:21:20;;;;;;;8.97;2.40;;;;;;;;;;5048075;28;20216;-69
2022/02/19 04:23:45;;;;;;;11.00;2.07;;;;;;;;;;5047955;28;20176;-69
2022/02/19 04:26:10;;;;;;;10.20;1.67;;;;;;;;;;5048430;28;20213;-69
2022/02/19 04:28:35;;;;;;;11.00;1.67;;;;;;;;;;5049444;28;20265;-69
2022/02/19 04:31:00;;;;;;;12.60;2.80;;;;;;;;;;5044806;28;20202;-69
2022/02/19 04:33:26;;;;;;;12.00;2.77;;;;;;;;;;5048762;28;20204;-69
2022/02/19 04:35:51;;;;;;;6.43;1.70;;;;;;;;;;5050466;28;20189;-69
2022/02/19 04:38:16;;;;;;;7.20;2.00;;;;;;;;;;5052234;28;20185;-69
2022/02/19 04:40:42;;;;;;;12.83;2.00;;;;;;;;;;5052299;28;20232;-69
2022/02/19 04:43:07;;;;;;;9.90;2.10;;;;;;;;;;5053688;28;20174;-69
2022/02/19 04:45:33;;;;;;;9.13;2.03;;;;;;;;;;5034012;28;20242;-69
2022/02/19 04:47:58;;;;;;;6.07;2.33;;;;;;;;;;5052505;28;20177;-68
2022/02/19 04:50:23;;;;;;;9.10;1.93;;;;;;;;;;5051592;28;20208;-68
2022/02/19 04:52:49;;;;;;;9.73;2.27;;;;;;;;;;5052599;28;20276;-68
2022/02/19 04:55:14;;;;;;;9.10;2.80;;;;;;;;;;5032233;28;20202;-68
2022/02/19 04:57:45;;;;;;;8.00;1.73;;;;;;;;;;5034460;28;20174;-68
2022/02/19 05:00:11;;;;;;;7.40;1.60;;;;;;;;;;5049033;28;20182;-68
2022/02/19 05:02:37;;;;;;;9.13;1.70;;;;;;;;;;5050269;28;20188;-68
2022/02/19 05:05:02;;;;;;;7.87;1.83;;;;;;;;;;5050931;28;20284;-68
2022/02/19 05:07:27;;;;;;;10.07;2.33;;;;;;;;;;5050977;28;20182;-68
2022/02/19 05:09:52;;;;;;;5.90;1.87;;;;;;;;;;5051019;28;20197;-68
2022/02/19 05:12:17;;;;;;;6.57;1.70;;;;;;;;;;5040739;28;20240;-68
2022/02/19 05:14:43;;;;;;;5.23;1.33;;;;;;;;;;5048172;28;20189;-68
2022/02/19 05:17:08;;;;;;;7.50;2.03;;;;;;;;;;5052304;28;20200;-68
2022/02/19 05:19:33;;;;;;;9.10;2.40;;;;;;;;;;5049551;28;21262;-68
2022/02/19 05:21:58;;;;;;;6.07;1.80;;;;;;;;;;5056885;28;20235;-68
2022/02/19 05:24:23;;;;;;;13.27;2.20;;;;;;;;;;5048224;28;20749;-69
2022/02/19 05:26:48;;;;;;;8.00;2.33;;;;;;;;;;5049580;28;20209;-69
2022/02/19 05:29:14;;;;;;;8.23;1.73;;;;;;;;;;5033778;28;20646;-68
2022/02/19 05:31:39;;;;;;;10.77;2.53;;;;;;;;;;5051361;28;20667;-68
2022/02/19 05:34:04;;;;;;;6.13;1.73;;;;;;;;;;5050992;28;20180;-68
2022/02/19 05:36:30;;;;;;;6.83;1.90;;;;;;;;;;5049671;28;20571;-68
2022/02/19 05:38:56;;;;;;;6.83;1.80;;;;;;;;;;5052646;28;20594;-70
2022/02/19 05:41:21;;;;;;;10.80;2.47;;;;;;;;;;5050489;28;20177;-68
2022/02/19 05:43:46;;;;;;;10.07;2.07;;;;;;;;;;5052252;28;20170;-68
2022/02/19 05:46:11;;;;;;;12.27;2.00;;;;;;;;;;5048060;28;20740;-69
2022/02/19 05:48:36;;;;;;;10.67;2.50;;;;;;;;;;5051039;28;20177;-70
2022/02/19 05:51:02;;;;;;;9.17;2.10;;;;;;;;;;5050234;28;20204;-69
2022/02/19 05:53:27;;;;;;;11.17;3.13;;;;;;;;;;5031984;28;20635;-69
2022/02/19 05:55:53;;;;;;;5.63;1.70;;;;;;;;;;5049612;28;20280;-69
2022/02/19 05:58:19;;;;;;;9.97;2.20;;;;;;;;;;5039179;28;20178;-69
2022/02/19 06:00:44;;;;;;;8.53;1.60;;;;;;;;;;5040642;28;20644;-70
2022/02/19 06:03:09;;;;;;;13.93;2.33;;;;;;;;;;5037022;28;20820;-68
2022/02/19 06:05:34;;;;;;;6.07;1.73;;;;;;;;;;5048311;28;20212;-68
2022/02/19 06:08:00;;;;;;;12.97;3.93;;;;;;;;;;5045031;28;20272;-68
2022/02/19 06:10:25;;;;;;;13.20;2.07;;;;;;;;;;5047798;28;20202;-68
2022/02/19 06:12:50;;;;;;;9.87;1.80;;;;;;;;;;5053091;28;20239;-68
2022/02/19 06:15:15;;;;;;;9.80;3.37;;;;;;;;;;5044464;28;20276;-68
2022/02/19 06:17:41;;;;;;;11.77;2.17;;;;;;;;;;5041511;28;20646;-68
2022/02/19 06:20:06;;;;;;;12.47;1.90;;;;;;;;;;5049406;28;20189;-70
2022/02/19 06:22:31;;;;;;;11.10;1.70;;;;;;;;;;5043304;28;20178;-68
2022/02/19 06:24:56;;;;;;;13.30;2.90;;;;;;;;;;5046411;28;20193;-70
2022/02/19 06:27:21;;;;;;;5.97;2.27;;;;;;;;;;5050011;28;20200;-68
2022/02/19 06:29:47;;;;;;;15.30;4.03;;;;;;;;;;5048782;28;20233;-68
2022/02/19 06:32:13;;;;;;;11.47;3.23;;;;;;;;;;5047719;28;20605;-68
2022/02/19 06:34:38;;;;;;;9.50;2.30;;;;;;;;;;5047630;28;20188;-70
2022/02/19 06:37:03;;;;;;;16.67;2.33;;;;;;;;;;5049429;28;20231;-70
2022/02/19 06:39:28;;;;;;;7.80;2.07;;;;;;;;;;5049521;28;20643;-70
2022/02/19 06:41:54;;;;;;;15.63;3.40;;;;;;;;;;5046824;28;20181;-69
2022/02/19 06:44:19;;;;;;;11.60;1.90;;;;;;;;;;5043842;28;20178;-69
2022/02/19 06:46:44;;;;;;;17.50;2.47;;;;;;;;;;5049226;28;20192;-67
2022/02/19 06:49:10;;;;;;;8.07;2.20;;;;;;;;;;5049915;28;20193;-69
2022/02/19 06:51:35;;;;;;;10.53;2.30;;;;;;;;;;5046482;28;20643;-69
2022/02/19 06:54:00;;;;;;;6.43;2.30;;;;;;;;;;5049472;28;20166;-71
2022/02/19 06:56:26;;;;;;;8.50;1.87;;;;;;;;;;5048809;28;20274;-69
2022/02/19 06:58:51;;;;;;;10.73;2.13;;;;;;;;;;5049990;28;20560;-69
2022/02/19 07:01:17;;;;;;;10.13;2.67;;;;;;;;;;5047823;28;20205;-69
2022/02/19 07:03:42;;;;;;;12.17;2.43;;;;;;;;;;5045530;28;20256;-69
2022/02/19 07:06:07;;;;;;;8.90;2.10;;;;;;;;;;5040848;28;20225;-69
2022/02/19 07:08:32;;;;;;;8.27;1.97;;;;;;;;;;5048623;28;20178;-67
2022/02/19 07:10:57;;;;;;;10.93;1.87;;;;;;;;;;5049171;28;20205;-68
2022/02/19 07:13:23;;;;;;;7.47;1.77;;;;;;;;;;5048518;28;20224;-70
2022/02/19 07:15:48;;;;;;;6.50;1.80;;;;;;;;;;5048959;28;20208;-68
2022/02/19 07:18:13;;;;;;;14.63;2.80;;;;;;;;;;5049963;28;20188;-69
2022/02/19 07:20:38;;;;;;;9.37;3.27;;;;;;;;;;5048210;28;20248;-70
2022/02/19 07:23:04;;;;;;;10.27;2.43;;;;;;;;;;5048090;28;20185;-70
2022/02/19 07:25:30;;;;;;;5.40;2.20;;;;;;;;;;5050613;28;20576;-69
2022/02/19 07:27:55;;;;;;;9.13;2.30;;;;;;;;;;5051791;28;20186;-69
2022/02/19 07:30:20;;;;;;;13.40;2.03;;;;;;;;;;5050935;28;20200;-69
2022/02/19 07:32:48;;;;;;;6.40;1.63;;;;;;;;;;5048654;28;20177;-70
2022/02/19 07:35:13;;;;;;;10.27;1.97;;;;;;;;;;5047037;28;20565;-69
2022/02/19 07:37:39;;;;;;;10.43;2.50;;;;;;;;;;5050529;28;20185;-69
2022/02/19 07:40:05;;;;;;;9.77;1.67;;;;;;;;;;5048941;28;20192;-70
2022/02/19 07:42:30;;;;;;;11.40;1.77;;;;;;;;;;5049867;28;20188;-69
2022/02/19 07:44:56;;;;;;;8.30;1.50;;;;;;;;;;5050414;28;20197;-69
2022/02/19 07:47:25;;;;;;;5.53;1.57;;;;;;;;;;5050132;28;20687;-70
2022/02/19 07:58:25;;;;;;;6.23;1.53;;;;;;;;;;5050055;28;20706;-69
2022/02/19 08:00:57;;;;;;;14.03;1.83;;;;;;;;;;5046474;28;20197;-69
2022/02/19 08:03:23;;;;;;;10.73;1.97;;;;;;;;;;5048779;28;20204;-69
2022/02/19 08:05:49;;;;;;;9.03;2.57;;;;;;;;;;5030980;28;20202;-67
2022/02/19 08:08:15;;;;;;;6.70;1.80;;;;;;;;;;5050136;28;20192;-69
2022/02/19 08:10:40;;;;;;;11.43;2.60;;;;;;;;;;5053204;28;20220;-69
2022/02/19 08:13:07;;;;;;;7.00;1.70;;;;;;;;;;5041596;28;20604;-69
2022/02/19 08:15:34;;;;;;;10.63;2.00;;;;;;;;;;5047669;28;20677;-69
2022/02/19 08:17:59;;;;;;;21.37;4.17;;;;;;;;;;5053959;28;20224;-70
2022/02/19 08:20:24;;;;;;;11.03;2.07;;;;;;;;;;5043429;28;20179;-70
2022/02/19 08:22:49;;;;;;;12.17;2.07;;;;;;;;;;5052814;28;20189;-68
2022/02/19 08:25:15;;;;;;;5.63;1.97;;;;;;;;;;5064119;22;20213;-69
2022/02/19 08:27:40;;;;;;;14.63;2.80;;;;;;;;;;5043020;28;20190;-68
2022/02/19 08:30:06;;;;;;;6.80;1.57;;;;;;;;;;5046320;28;20212;-68
2022/02/19 08:32:31;;;;;;;8.47;2.00;;;;;;;;;;5042104;28;20319;-69
2022/02/19 08:34:57;;;;;;;9.03;2.80;;;;;;;;;;5016657;28;20266;-68
2022/02/19 08:37:23;;;;;;;10.60;2.30;;;;;;;;;;5046252;28;20235;-67
2022/02/19 08:39:48;;;;;;;11.57;3.03;;;;;;;;;;5037091;28;20222;-68
2022/02/19 08:42:13;;;;;;;10.67;2.33;;;;;;;;;;5038773;28;20174;-69
2022/02/19 08:44:38;;;;;;;11.23;2.03;;;;;;;;;;5040154;28;20536;-69
2022/02/19 08:47:04;;;;;;;7.60;2.00;;;;;;;;;;5030659;28;20210;-68
2022/02/19 08:49:29;;;;;;;8.67;2.10;;;;;;;;;;5030134;28;20291;-69
2022/02/19 08:51:54;;;;;;;10.27;2.30;;;;;;;;;;5019590;28;20185;-69
2022/02/19 08:54:19;;;;;;;8.43;1.37;;;;;;;;;;5031248;28;20240;-66
2022/02/19 08:56:47;;;;;;;12.23;1.77;;;;;;;;;;5027110;28;20423;-67
2022/02/19 08:59:12;;;;;;;6.70;2.53;;;;;;;;;;5036876;28;20171;-66
2022/02/19 09:01:38;;;;;;;12.30;2.53;;;;;;;;;;5032975;28;20239;-66
2022/02/19 09:04:03;;;;;;;6.13;2.20;;;;;;;;;;5030845;28;20191;-67
2022/02/19 09:06:28;;;;;;;6.13;2.20;;;;;;;;;;5037586;28;20236;-68
2022/02/19 09:08:54;;;;;;;7.40;2.60;;;;;;;;;;5040843;28;20175;-68
2022/02/19 09:11:20;;;;;;;6.77;2.40;;;;;;;;;;5034796;28;20206;-67
2022/02/19 09:13:47;;;;;;;9.53;1.87;;;;;;;;;;5034372;28;20365;-67
2022/02/19 09:16:12;;;;;;;11.27;2.43;;;;;;;;;;5027386;28;20230;-68
2022/02/19 09:18:37;;;;;;;8.10;2.07;;;;;;;;;;5040545;28;20212;-67
2022/02/19 09:21:03;;;;;;;6.30;2.17;;;;;;;;;;5043691;28;20174;-68
2022/02/19 09:23:28;;;;;;;12.03;1.87;;;;;;;;;;5039235;28;20397;-67
2022/02/19 09:25:53;;;;;;;8.67;1.80;;;;;;;;;;5041741;28;20220;-69
2022/02/19 09:28:21;;;;;;;7.03;1.97;;;;;;;;;;5040685;28;20223;-67
2022/02/19 09:30:46;;;;;;;6.27;1.77;;;;;;;;;;5033783;28;20364;-68
2022/02/19 09:33:11;;;;;;;12.20;2.57;;;;;;;;;;5031690;28;20315;-68
2022/02/19 09:35:36;;;;;;;8.03;2.20;;;;;;;;;;5039672;28;20189;-68
2022/02/19 09:38:02;;;;;;;10.90;2.57;;;;;;;;;;5044492;28;20170;-68
2022/02/19 09:40:27;;;;;;;9.57;1.60;;;;;;;;;;5039421;28;20264;-68
2022/02/19 09:42:52;;;;;;;10.30;1.77;;;;;;;;;;5040214;28;20184;-67
2022/02/19 09:45:18;;;;;;;7.13;1.77;;;;;;;;;;5028803;28;20296;-68
2022/02/19 09:47:44;;;;;;;7.03;1.77;;;;;;;;;;5034580;28;20198;-68
2022/02/19 09:50:10;;;;;;;5.93;1.93;;;;;;;;;;5036710;28;20747;-68
2022/02/19 09:52:35;;;;;;;7.23;1.97;;;;;;;;;;5040020;28;20170;-67
2022/02/19 09:55:01;;;;;;;6.37;1.63;;;;;;;;;;5039756;28;20249;-68
2022/02/19 09:57:26;;;;;;;13.17;1.90;;;;;;;;;;5043306;28;20182;-67
2022/02/19 09:59:51;;;;;;;6.80;1.57;;;;;;;;;;5042318;28;20170;-67
2022/02/19 10:02:17;;;;;;;15.87;2.40;;;;;;;;;;5036163;28;20191;-67
2022/02/19 10:04:42;;;;;;;8.30;1.50;;;;;;;;;;5031449;28;20534;-68
2022/02/19 10:07:12;;;;;;;7.87;2.27;;;;;;;;;;5033629;28;20236;-67
2022/02/19 10:09:42;;;;;;;7.60;1.77;;;;;;;;;;5040469;28;20236;-67
2022/02/19 10:12:08;;;;;;;11.03;2.00;;;;;;;;;;5037592;28;20309;-66
2022/02/19 10:14:35;;;;;;;12.10;2.20;;;;;;;;;;5022813;28;20253;-66
2022/02/19 10:17:16;;;;;;;8.63;1.80;;;;;;;;;;5030907;28;20197;-66
2022/02/19 10:19:50;;;;;;;8.90;1.67;;;;;;;;;;5028144;28;20192;-67
2022/02/19 10:22:16;;;;;;;12.87;3.30;;;;;;;;;;5030314;28;20185;-67
2022/02/19 10:24:44;;;;;;;8.00;1.70;;;;;;;;;;5030271;28;20182;-66
2022/02/19 10:27:10;;;;;;;6.90;1.30;;;;;;;;;;5028241;28;20222;-65
2022/02/19 10:30:01;;;;;;;7.10;1.57;;;;;;;;;;5029835;28;20210;-67
2022/02/19 10:32:27;;;;;;;8.23;1.80;;;;;;;;;;5019501;28;20187;-69
2022/02/19 10:34:56;;;;;;;11.63;2.30;;;;;;;;;;5025908;28;20177;-67
2022/02/19 10:37:25;;;;;;;7.23;1.80;;;;;;;;;;5018587;28;20182;-69
2022/02/19 10:39:50;;;;;;;8.10;2.27;;;;;;;;;;5037947;28;20185;-66
2022/02/19 10:42:15;;;;;;;9.20;3.67;;;;;;;;;;5030106;28;20544;-66
2022/02/19 10:44:40;;;;;;;8.40;1.80;;;;;;;;;;5027070;28;20232;-69
2022/02/19 10:47:22;;;;;;;5.60;1.60;;;;;;;;;;5031648;28;20205;-68
2022/02/19 10:50:05;;;;;;;9.53;1.90;;;;;;;;;;5022418;28;20350;-68
2022/02/19 10:52:30;;;;;;;9.07;2.20;;;;;;;;;;5028724;28;20261;-68
2022/02/19 10:55:24;;;;;;;10.87;1.60;;;;;;;;;;5033126;28;20252;-68
2022/02/19 10:57:51;;;;;;;10.93;2.23;;;;;;;;;;5025687;28;20213;-68
2022/02/19 11:00:20;;;;;;;4.87;1.27;;;;;;;;;;5040799;28;20229;-68
2022/02/19 11:02:47;;;;;;;12.50;2.50;;;;;;;;;;5037348;28;20198;-68
2022/02/19 11:05:12;;;;;;;12.90;2.27;;;;;;;;;;5039569;28;20214;-69
2022/02/19 11:07:39;;;;;;;10.33;2.57;;;;;;;;;;5037110;28;20180;-68
2022/02/19 11:10:05;;;;;;;11.93;2.00;;;;;;;;;;5037683;28;20710;-68
2022/02/19 11:12:30;;;;;;;8.80;2.43;;;;;;;;;;5040669;28;20169;-68
2022/02/19 11:14:56;;;;;;;8.50;1.90;;;;;;;;;;5036512;28;20582;-67
2022/02/19 11:17:21;;;;;;;8.80;2.20;;;;;;;;;;5037406;28;20182;-69
2022/02/19 11:19:47;;;;;;;11.47;1.87;;;;;;;;;;5039407;28;20232;-68
2022/02/19 11:22:12;;;;;;;10.40;1.73;;;;;;;;;;5036958;28;20185;-68
2022/02/19 11:24:40;;;;;;;5.07;1.47;;;;;;;;;;5029925;28;20220;-68
2022/02/19 11:27:06;;;;;;;9.77;1.93;;;;;;;;;;5043717;28;20314;-68
2022/02/19 11:29:32;;;;;;;9.03;2.00;;;;;;;;;;5034926;28;20266;-68
2022/02/19 11:31:58;;;;;;;11.83;1.60;;;;;;;;;;5022925;28;20307;-67
2022/02/19 11:34:23;;;;;;;6.70;1.97;;;;;;;;;;5026140;28;20644;-67
2022/02/19 11:36:51;;;;;;;4.10;1.10;;;;;;;;;;5028654;28;20193;-67
2022/02/19 11:39:16;;;;;;;10.40;1.53;;;;;;;;;;5029049;28;20174;-67
2022/02/19 11:41:43;;;;;;;4.93;1.40;;;;;;;;;;5033029;28;20659;-67
2022/02/19 11:44:14;;;;;;;5.40;1.87;;;;;;;;;;5037766;28;20583;-66
2022/02/19 11:46:39;;;;;;;7.00;1.33;;;;;;;;;;5031291;28;20202;-67
2022/02/19 11:49:16;;;;;;;4.50;1.57;;;;;;;;;;5030417;28;20679;-67
2022/02/19 11:51:41;;;;;;;8.30;1.60;;;;;;;;;;5023757;28;20562;-66
2022/02/19 11:54:06;;;;;;;6.33;1.60;;;;;;;;;;5030378;28;20178;-65
2022/02/19 11:56:32;;;;;;;5.93;1.30;;;;;;;;;;5037497;28;20260;-66
2022/02/19 11:58:59;;;;;;;9.53;2.83;;;;;;;;;;5032499;28;20213;-70
2022/02/19 12:01:24;;;;;;;7.37;1.37;;;;;;;;;;5038111;28;20238;-67
2022/02/19 12:04:08;;;;;;;4.37;1.20;;;;;;;;;;5036992;28;20170;-67
2022/02/19 12:06:33;;;;;;;7.17;1.50;;;;;;;;;;5039826;28;20247;-67
2022/02/19 12:09:28;;;;;;;7.80;1.10;;;;;;;;;;5033629;28;20655;-67
2022/02/19 12:11:57;;;;;;;7.67;1.90;;;;;;;;;;5022102;28;20194;-67
2022/02/19 12:14:41;;;;;;;6.37;1.30;;;;;;;;;;5032254;28;20186;-67
2022/02/19 12:17:10;;;;;;;9.90;1.33;;;;;;;;;;5032075;28;20232;-66
2022/02/19 12:19:51;;;;;;;7.67;1.40;;;;;;;;;;5045549;28;20189;-66
2022/02/19 12:22:35;;;;;;;8.80;1.73;;;;;;;;;;5032351;28;20205;-66
2022/02/19 12:25:10;;;;;;;9.33;1.40;;;;;;;;;;5030489;28;20599;-67
2022/02/19 12:27:36;;;;;;;7.20;1.60;;;;;;;;;;5030206;28;20198;-66
2022/02/19 12:30:20;;;;;;;5.20;1.07;;;;;;;;;;5031891;28;20214;-67
2022/02/19 12:32:47;;;;;;;9.20;1.70;;;;;;;;;;5029294;28;20196;-67
2022/02/19 12:35:12;;;;;;;5.73;1.53;;;;;;;;;;5030607;28;20201;-67
2022/02/19 12:37:37;;;;;;;8.37;1.57;;;;;;;;;;5033110;28;20177;-67
2022/02/19 12:40:03;;;;;;;6.03;1.23;;;;;;;;;;5030078;28;20174;-66
2022/02/19 12:42:29;;;;;;;7.27;1.40;;;;;;;;;;5031319;28;20202;-66
2022/02/19 12:44:58;;;;;;;9.20;1.67;;;;;;;;;;5042955;28;20178;-66
2022/02/19 12:47:23;;;;;;;5.07;1.73;;;;;;;;;;5033485;28;20231;-66
2022/02/19 12:49:49;;;;;;;9.57;1.70;;;;;;;;;;5022923;28;20214;-66
2022/02/19 12:52:14;;;;;;;7.37;1.87;;;;;;;;;;5032091;28;20213;-66
2022/02/19 12:54:40;;;;;;;9.50;1.33;;;;;;;;;;5020088;28;20785;-66
2022/02/19 12:57:06;;;;;;;8.63;1.67;;;;;;;;;;5013989;28;20249;-67
2022/02/19 12:59:33;;;;;;;8.57;1.57;;;;;;;;;;5029007;28;20180;-67
2022/02/19 13:01:59;;;;;;;9.57;1.20;;;;;;;;;;5032317;28;20178;-67
2022/02/19 13:04:31;;;;;;;9.53;1.87;;;;;;;;;;5031824;28;20264;-67
2022/02/19 13:06:56;;;;;;;6.97;1.50;;;;;;;;;;5031770;28;20277;-67
2022/02/19 13:09:22;;;;;;;7.23;2.17;;;;;;;;;;5034445;28;20265;-66
2022/02/19 13:11:49;;;;;;;6.20;1.37;;;;;;;;;;5030611;28;20185;-66
2022/02/19 13:14:14;;;;;;;11.07;2.23;;;;;;;;;;5029250;28;20240;-66
2022/02/19 13:16:40;;;;;;;8.00;1.30;;;;;;;;;;5034284;28;20519;-66
2022/02/19 13:19:05;;;;;;;4.93;1.60;;;;;;;;;;5039165;28;20310;-67
2022/02/19 13:21:30;;;;;;;11.87;2.27;;;;;;;;;;5032629;28;20588;-66
2022/02/19 13:23:58;;;;;;;8.57;1.60;;;;;;;;;;5030056;28;20182;-66
2022/02/19 13:26:23;;;;;;;5.60;1.50;;;;;;;;;;5027260;28;20763;-66
2022/02/19 13:28:52;;;;;;;8.37;1.60;;;;;;;;;;5026530;28;20266;-68
2022/02/19 13:31:17;;;;;;;10.27;2.10;;;;;;;;;;5028088;28;20300;-65
2022/02/19 13:33:43;;;;;;;10.97;1.70;;;;;;;;;;5033976;28;20192;-66
2022/02/19 13:36:08;;;;;;;11.73;1.73;;;;;;;;;;5017986;28;20559;-66
2022/02/19 13:38:34;;;;;;;8.03;1.40;;;;;;;;;;5031158;28;20174;-66
2022/02/19 13:40:59;;;;;;;10.43;2.73;;;;;;;;;;5030188;28;20636;-67
2022/02/19 13:43:24;;;;;;;6.83;2.03;;;;;;;;;;5029744;28;20273;-65
2022/02/19 13:45:49;;;;;;;7.17;1.57;;;;;;;;;;5036520;28;20202;-66
2022/02/19 13:48:25;;;;;;;5.50;1.70;;;;;;;;;;5020064;28;20186;-65
2022/02/19 13:50:53;;;;;;;4.70;1.37;;;;;;;;;;5024609;28;20212;-64
2022/02/19 13:53:21;;;;;;;6.53;1.83;;;;;;;;;;5029042;28;20217;-66
2022/02/19 13:55:50;;;;;;;6.80;1.97;;;;;;;;;;5026827;28;20656;-66
2022/02/19 13:58:16;;;;;;;8.93;2.40;;;;;;;;;;5014005;28;20610;-65
2022/02/19 14:00:43;;;;;;;13.37;2.23;;;;;;;;;;5033181;28;20550;-66
2022/02/19 14:03:08;;;;;;;7.23;1.67;;;;;;;;;;5029739;28;20190;-66
2022/02/19 14:05:54;;;;;;;9.80;1.83;;;;;;;;;;5025574;28;20194;-66
2022/02/19 14:08:31;;;;;;;6.70;2.77;;;;;;;;;;5027034;28;20187;-65
2022/02/19 14:10:57;;;;;;;9.30;2.90;;;;;;;;;;5026528;28;20197;-66
2022/02/19 14:13:23;;;;;;;6.43;2.17;;;;;;;;;;5030309;28;20229;-65
2022/02/19 14:15:50;;;;;;;5.87;2.20;;;;;;;;;;5027038;28;20226;-66
2022/02/19 14:18:15;;;;;;;5.77;1.83;;;;;;;;;;5029029;28;20178;-65
2022/02/19 14:20:41;;;;;;;10.40;2.00;;;;;;;;;;5034234;28;20177;-67
2022/02/19 14:23:13;;;;;;;8.20;1.83;;;;;;;;;;5028683;28;20196;-68
2022/02/19 14:25:41;;;;;;;7.50;2.07;;;;;;;;;;5034786;28;20206;-65
2022/02/19 14:28:06;;;;;;;9.43;1.77;;;;;;;;;;5029976;28;20545;-66
2022/02/19 14:30:36;;;;;;;7.27;2.10;;;;;;;;;;5027981;28;20205;-66
2022/02/19 14:33:06;;;;;;;10.00;2.20;;;;;;;;;;5014053;28;20178;-66
2022/02/19 14:35:32;;;;;;;6.37;1.80;;;;;;;;;;5027508;28;20252;-66
2022/02/19 14:37:58;;;;;;;9.37;1.90;;;;;;;;;;5026610;28;20575;-66
2022/02/19 14:40:23;;;;;;;7.40;2.60;;;;;;;;;;5035259;28;20293;-66
2022/02/19 14:42:50;;;;;;;5.40;1.50;;;;;;;;;;5043953;28;20232;-65
2022/02/19 14:45:15;;;;;;;6.37;2.03;;;;;;;;;;5029711;28;20201;-66